createdAt,value
2023-05-14T00:04:01.615Z,5.00
2023-05-14T00:09:04.692Z,5.03
2023-05-14T00:14:08.838Z,5.45
2023-05-14T00:19:11.943Z,5.30
2023-05-14T00:24:14.842Z,4.90
2023-05-14T00:29:18.995Z,4.75
2023-05-14T00:34:21.754Z,4.82
2023-05-14T00:39:24.471Z,4.85
2023-05-14T00:44:28.601Z,4.95
2023-05-14T00:49:31.541Z,5.18
2023-05-14T00:54:34.459Z,4.78
2023-05-14T00:59:40.881Z,5.03
2023-05-14T01:04:44.536Z,5.45
2023-05-14T01:09:55.275Z,4.97
2023-05-14T01:15:07.334Z,5.32
2023-05-14T01:20:10.619Z,5.93
2023-05-14T01:25:15.023Z,5.18
2023-05-14T01:30:23.697Z,4.80
2023-05-14T01:35:29.409Z,5.15
2023-05-14T01:40:34.494Z,5.20
2023-05-14T01:45:38.260Z,5.20
2023-05-14T01:50:41.111Z,5.38
2023-05-14T01:55:45.292Z,4.97
2023-05-14T02:00:48.094Z,5.28
2023-05-14T02:05:50.956Z,5.60
2023-05-14T02:10:55.142Z,5.50
2023-05-14T02:16:00.626Z,5.43
2023-05-14T02:21:03.476Z,5.82
2023-05-14T02:26:08.506Z,5.80
2023-05-14T02:31:11.267Z,5.55
2023-05-14T02:36:14.262Z,5.47
2023-05-14T02:41:18.441Z,5.95
2023-05-14T02:46:21.258Z,5.75
2023-05-14T02:51:24.231Z,6.07
2023-05-14T02:56:28.362Z,6.13
2023-05-14T03:01:31.247Z,6.05
2023-05-14T03:06:34.781Z,6.22
2023-05-14T03:11:39.040Z,6.68
2023-05-14T03:16:42.282Z,6.50
2023-05-14T03:21:46.381Z,6.10
2023-05-14T03:26:50.565Z,5.97
2023-05-14T03:31:54.365Z,6.63
2023-05-14T03:36:57.151Z,6.15
2023-05-14T03:42:01.311Z,6.15
2023-05-14T03:47:04.265Z,6.20
2023-05-14T03:52:07.273Z,6.40
2023-05-14T03:57:11.445Z,6.47
2023-05-14T04:02:14.224Z,6.13
2023-05-14T04:07:16.963Z,6.43
2023-05-14T04:12:21.041Z,6.78
2023-05-14T04:17:23.978Z,6.30
2023-05-14T04:22:26.802Z,6.13
2023-05-14T04:27:31.000Z,6.85
2023-05-14T04:32:33.792Z,6.53
2023-05-14T04:37:36.517Z,6.30
2023-05-14T04:42:40.633Z,7.00
2023-05-14T04:47:45.056Z,6.78
2023-05-14T04:52:47.879Z,6.05
2023-05-14T04:57:52.026Z,6.68
2023-05-14T05:02:54.817Z,6.43
2023-05-14T05:07:57.818Z,6.70
2023-05-14T05:13:01.962Z,6.60
2023-05-14T05:18:05.061Z,6.57
2023-05-14T05:23:07.833Z,6.82
2023-05-14T05:28:11.978Z,6.30
2023-05-14T05:33:15.103Z,6.13
2023-05-14T05:38:18.285Z,6.90
2023-05-14T05:43:22.537Z,6.28
2023-05-14T05:48:25.505Z,6.18
2023-05-14T05:53:28.234Z,6.50
2023-05-14T05:58:32.328Z,6.20
2023-05-14T06:03:35.430Z,6.47
2023-05-14T06:08:38.368Z,6.10
2023-05-14T06:13:42.607Z,6.25
2023-05-14T06:18:45.712Z,5.88
2023-05-14T06:23:48.631Z,6.10
2023-05-14T06:28:52.915Z,5.95
2023-05-14T06:33:55.722Z,5.57
2023-05-14T06:38:58.518Z,5.35
2023-05-14T06:44:02.706Z,5.05
2023-05-14T06:49:05.675Z,4.68
2023-05-14T06:54:08.869Z,4.95
2023-05-14T06:59:15.073Z,4.43
2023-05-14T07:04:17.982Z,4.38
2023-05-14T07:09:21.114Z,4.03
2023-05-14T07:14:25.332Z,4.60
2023-05-14T07:19:28.780Z,3.90
2023-05-14T07:24:31.635Z,3.92
2023-05-14T07:29:35.948Z,5.35
2023-05-14T07:34:38.808Z,3.80
2023-05-14T07:39:41.915Z,3.53
2023-05-14T07:44:46.037Z,3.47
2023-05-14T07:49:48.861Z,3.70
2023-05-14T07:54:52.801Z,3.75
2023-05-14T07:59:58.267Z,3.63
2023-05-14T08:05:01.571Z,3.75
2023-05-14T08:10:05.011Z,3.38
2023-05-14T08:15:10.582Z,3.75
2023-05-14T08:20:13.675Z,3.72
2023-05-14T08:25:16.817Z,3.20
2023-05-14T08:30:21.363Z,3.83
2023-05-14T08:35:24.521Z,3.90
2023-05-14T08:40:27.934Z,3.55
2023-05-14T08:45:34.849Z,3.85
2023-05-14T08:50:37.966Z,3.70
2023-05-14T08:55:40.981Z,3.88
2023-05-14T09:00:45.177Z,3.30
2023-05-14T09:05:50.090Z,3.90
2023-05-14T09:10:52.872Z,3.42
2023-05-14T09:15:57.668Z,3.80
2023-05-14T09:21:00.453Z,3.53
2023-05-14T09:26:06.527Z,3.40
2023-05-14T09:31:11.707Z,3.42
2023-05-14T09:36:14.533Z,3.45
2023-05-14T09:41:17.760Z,3.20
2023-05-14T09:46:21.887Z,3.50
2023-05-14T09:51:25.824Z,3.30
2023-05-14T09:56:37.844Z,3.10
2023-05-14T10:01:44.057Z,3.08
2023-05-14T10:06:52.289Z,2.90
2023-05-14T10:12:00.124Z,2.85
2023-05-14T10:17:06.877Z,3.33
2023-05-14T10:22:13.723Z,2.90
2023-05-14T10:27:17.384Z,3.20
2023-05-14T10:32:22.911Z,3.17
2023-05-14T10:37:27.184Z,2.63
2023-05-14T10:42:35.758Z,3.08
2023-05-14T10:47:43.202Z,3.53
2023-05-14T10:52:46.918Z,2.95
2023-05-14T10:57:50.520Z,3.30
2023-05-14T11:02:57.516Z,3.10
2023-05-14T11:08:00.860Z,2.80
2023-05-14T11:13:03.871Z,3.30
2023-05-14T11:18:08.145Z,3.60
2023-05-14T11:23:11.193Z,3.10
2023-05-14T11:28:14.183Z,3.40
2023-05-14T11:33:19.200Z,3.22
2023-05-14T11:38:22.562Z,3.10
2023-05-14T11:43:29.049Z,3.50
2023-05-14T11:48:34.878Z,3.60
2023-05-14T11:53:37.800Z,3.25
2023-05-14T11:58:40.973Z,3.13
2023-05-14T12:03:45.286Z,3.28
2023-05-14T12:08:49.320Z,3.20
2023-05-14T12:13:53.799Z,3.17
2023-05-14T12:19:01.006Z,3.50
2023-05-14T12:24:04.020Z,3.55
2023-05-14T12:29:07.896Z,3.28
2023-05-14T12:34:12.071Z,3.10
2023-05-14T12:39:16.836Z,3.78
2023-05-14T12:44:21.945Z,3.28
2023-05-14T12:49:26.146Z,3.70
2023-05-14T12:54:29.030Z,3.42
2023-05-14T12:59:31.840Z,3.30
2023-05-14T13:04:36.031Z,3.70
2023-05-14T13:09:38.963Z,3.70
2023-05-14T13:14:41.677Z,3.40
2023-05-14T13:19:45.869Z,3.50
2023-05-14T13:24:48.693Z,3.55
2023-05-14T13:29:51.409Z,3.85
2023-05-14T13:34:55.680Z,3.60
2023-05-14T13:39:58.477Z,3.47
2023-05-14T13:45:01.501Z,3.22
2023-05-14T13:50:06.672Z,3.40
2023-05-14T13:55:09.924Z,3.38
2023-05-14T14:00:13.698Z,3.10
2023-05-14T14:05:17.954Z,3.10
2023-05-14T14:10:20.805Z,3.10
2023-05-14T14:15:23.743Z,3.20
2023-05-14T14:20:28.095Z,2.90
2023-05-14T14:25:30.849Z,3.03
2023-05-14T14:30:34.634Z,3.10
2023-05-14T14:35:38.882Z,3.10
2023-05-14T14:40:41.725Z,3.50
2023-05-14T14:45:46.863Z,3.20
2023-05-14T14:50:52.702Z,3.58
2023-05-14T14:55:55.624Z,3.25
2023-05-14T15:00:59.323Z,4.43
2023-05-14T15:06:03.515Z,3.90
2023-05-14T15:11:07.308Z,3.50
2023-05-14T15:16:10.255Z,4.85
2023-05-14T15:21:14.535Z,3.30
2023-05-14T15:26:17.352Z,3.88
2023-05-14T15:31:20.201Z,4.25
2023-05-14T15:36:24.416Z,3.83
2023-05-14T15:41:28.734Z,3.90
2023-05-14T15:46:32.208Z,3.65
2023-05-14T15:51:36.688Z,3.35
2023-05-14T15:56:40.489Z,3.50
2023-05-14T16:01:43.372Z,3.70
2023-05-14T16:06:47.593Z,3.40
2023-05-14T16:11:50.443Z,4.10
2023-05-14T16:16:54.520Z,3.40
2023-05-14T16:21:58.696Z,3.90
2023-05-14T16:27:01.523Z,3.88
2023-05-14T16:32:04.591Z,4.28
2023-05-14T16:37:10.213Z,4.05
2023-05-14T16:42:14.348Z,4.38
2023-05-14T16:47:17.371Z,4.00
2023-05-14T16:52:21.694Z,3.95
2023-05-14T16:57:25.521Z,3.83
2023-05-14T17:02:28.301Z,5.00
2023-05-14T17:07:32.480Z,5.97
2023-05-14T17:12:35.307Z,4.95
2023-05-14T17:17:38.216Z,6.82
2023-05-14T17:22:42.782Z,5.22
2023-05-14T17:27:45.724Z,4.45
2023-05-14T17:32:51.437Z,3.78
2023-05-14T17:37:59.893Z,3.30
2023-05-14T17:43:03.309Z,5.40
2023-05-14T17:48:07.029Z,4.80
2023-05-14T17:53:11.214Z,4.25
2023-05-14T17:58:16.268Z,3.78
2023-05-14T18:03:20.861Z,4.10
2023-05-14T18:08:27.993Z,4.60
2023-05-14T18:13:31.058Z,6.07
2023-05-14T18:18:39.945Z,3.95
2023-05-14T18:23:45.380Z,4.47
2023-05-14T18:28:48.686Z,3.90
2023-05-14T18:33:54.519Z,5.65
2023-05-14T18:38:58.786Z,4.47
2023-05-14T18:44:03.081Z,4.32
2023-05-14T18:49:06.162Z,4.03
2023-05-14T18:54:10.583Z,4.68
2023-05-14T18:59:13.398Z,4.50
2023-05-14T19:04:51.834Z,4.53
2023-05-14T19:10:04.829Z,4.40
2023-05-14T19:15:08.754Z,4.35
2023-05-14T19:20:14.904Z,4.82
2023-05-14T19:25:19.365Z,4.63
2023-05-14T19:30:22.849Z,4.15
2023-05-14T19:35:26.022Z,4.97
2023-05-14T19:40:30.419Z,4.80
2023-05-14T19:45:36.568Z,5.20
2023-05-14T19:50:39.367Z,5.85
2023-05-14T19:55:43.922Z,6.90
2023-05-14T20:00:47.386Z,7.25
2023-05-14T20:05:53.511Z,6.82
2023-05-14T20:10:57.706Z,6.75
2023-05-14T20:16:01.100Z,6.70
2023-05-14T20:21:05.503Z,5.53
2023-05-14T20:26:10.108Z,5.55
2023-05-14T20:31:12.962Z,5.05
2023-05-14T20:36:17.483Z,4.78
2023-05-14T20:41:22.243Z,4.85
2023-05-14T20:46:26.738Z,4.68
2023-05-14T20:51:29.678Z,5.35
2023-05-14T20:56:34.187Z,6.15
2023-05-14T21:01:37.389Z,6.70
2023-05-14T21:06:40.195Z,5.88
2023-05-14T21:11:44.473Z,5.72
2023-05-14T21:16:47.698Z,6.35
2023-05-14T21:21:50.640Z,5.57
2023-05-14T21:26:58.207Z,4.95
2023-05-14T21:32:01.065Z,6.30
2023-05-14T21:37:06.154Z,5.60
2023-05-14T21:42:12.225Z,5.70
2023-05-14T21:47:16.211Z,5.18
2023-05-14T21:52:18.978Z,6.15
2023-05-14T21:57:23.350Z,6.97
2023-05-14T22:02:26.249Z,5.90
2023-05-14T22:07:29.182Z,6.38
2023-05-14T22:12:33.319Z,6.10
2023-05-14T22:17:36.693Z,6.43
2023-05-14T22:22:40.070Z,5.40
2023-05-14T22:27:44.216Z,5.50
2023-05-14T22:32:47.455Z,6.20
2023-05-14T22:37:50.261Z,6.10
2023-05-14T22:42:54.531Z,6.00
2023-05-14T22:47:57.410Z,6.07
2023-05-14T22:53:00.349Z,6.28
2023-05-14T22:58:04.526Z,6.32
2023-05-14T23:03:07.318Z,6.22
2023-05-14T23:08:10.128Z,6.80
2023-05-14T23:13:14.275Z,7.15
2023-05-14T23:18:17.318Z,7.00
2023-05-14T23:23:20.128Z,6.75
2023-05-14T23:28:24.839Z,7.03
2023-05-14T23:33:27.664Z,7.13
2023-05-14T23:38:30.495Z,6.57
2023-05-14T23:43:34.630Z,7.20
2023-05-14T23:48:37.442Z,6.85
2023-05-14T23:53:40.284Z,6.72
2023-05-14T23:58:44.635Z,6.68
